createdAt,value
2019-03-30T00:00:38.842Z,26.60
2019-03-30T00:01:38.818Z,27.10
2019-03-30T00:02:38.827Z,26.60
2019-03-30T00:03:38.863Z,27.50
2019-03-30T00:04:38.775Z,27.10
2019-03-30T00:05:38.767Z,26.30
2019-03-30T00:06:38.771Z,26.10
2019-03-30T00:07:38.774Z,25.80
2019-03-30T00:08:38.733Z,25.60
2019-03-30T00:09:38.716Z,26.30
2019-03-30T00:10:38.708Z,25.90
2019-03-30T00:11:38.702Z,25.30
2019-03-30T00:12:38.703Z,25.40
2019-03-30T00:13:38.669Z,25.70
2019-03-30T00:14:38.692Z,24.90
2019-03-30T00:15:38.676Z,25.10
2019-03-30T00:16:38.629Z,25.40
2019-03-30T00:17:38.650Z,26.70
2019-03-30T00:18:41.221Z,26.70
2019-03-30T00:19:38.613Z,25.60
2019-03-30T00:20:38.601Z,26.70
2019-03-30T00:21:38.586Z,25.70
2019-03-30T00:22:38.590Z,24.80
2019-03-30T00:23:38.583Z,24.40
2019-03-30T00:24:38.562Z,24.40
2019-03-30T00:25:38.548Z,24.00
2019-03-30T00:26:38.549Z,23.80
2019-03-30T00:27:38.528Z,24.10
2019-03-30T00:28:38.534Z,26.20
2019-03-30T00:29:38.501Z,27.50
2019-03-30T00:30:38.480Z,28.60
2019-03-30T00:31:38.561Z,25.50
2019-03-30T00:32:38.482Z,25.40
2019-03-30T00:33:38.443Z,25.90
2019-03-30T00:34:38.493Z,26.40
2019-03-30T00:35:38.437Z,26.00
2019-03-30T00:36:38.412Z,25.50
2019-03-30T00:37:38.399Z,26.20
2019-03-30T00:38:38.392Z,26.50
2019-03-30T00:39:38.402Z,25.80
2019-03-30T00:40:38.367Z,26.20
2019-03-30T00:41:38.359Z,27.40
2019-03-30T00:42:38.351Z,27.00
2019-03-30T00:43:38.334Z,27.00
2019-03-30T00:44:38.331Z,26.60
2019-03-30T00:45:38.349Z,26.30
2019-03-30T00:46:38.365Z,25.40
2019-03-30T00:47:38.287Z,24.90
2019-03-30T00:48:38.277Z,25.00
2019-03-30T00:49:48.419Z,23.70
2019-03-30T00:50:39.277Z,23.30
2019-03-30T00:51:38.258Z,23.40
2019-03-30T00:52:38.240Z,23.20
2019-03-30T00:53:38.272Z,22.70
2019-03-30T00:54:38.269Z,23.80
2019-03-30T00:55:38.214Z,24.60
2019-03-30T00:56:38.212Z,23.90
2019-03-30T00:57:38.177Z,23.90
2019-03-30T00:58:38.171Z,23.80
2019-03-30T00:59:38.170Z,24.70
2019-03-30T01:00:38.144Z,23.60
2019-03-30T01:01:38.150Z,24.40
2019-03-30T01:02:38.154Z,24.60
2019-03-30T01:03:38.133Z,23.70
2019-03-30T01:04:38.104Z,24.90
2019-03-30T01:05:38.103Z,24.80
2019-03-30T01:06:38.101Z,25.10
2019-03-30T01:07:38.083Z,24.90
2019-03-30T01:08:38.088Z,24.10
2019-03-30T01:09:38.057Z,25.30
2019-03-30T01:10:38.078Z,24.00
2019-03-30T01:11:38.027Z,24.80
2019-03-30T01:12:38.024Z,24.20
2019-03-30T01:13:38.003Z,24.30
2019-03-30T01:14:37.988Z,24.30
2019-03-30T01:15:37.991Z,25.50
2019-03-30T01:16:37.972Z,23.60
2019-03-30T01:17:37.996Z,24.00
2019-03-30T01:18:37.952Z,23.50
2019-03-30T01:19:37.972Z,24.50
2019-03-30T01:20:37.940Z,24.30
2019-03-30T01:21:37.918Z,23.90
2019-03-30T01:22:37.904Z,24.90
2019-03-30T01:23:37.912Z,24.60
2019-03-30T01:24:37.896Z,24.70
2019-03-30T01:25:37.884Z,25.00
2019-03-30T01:26:37.879Z,24.70
2019-03-30T01:27:37.856Z,24.50
2019-03-30T01:28:37.863Z,24.60
2019-03-30T01:29:37.857Z,24.30
2019-03-30T01:30:37.825Z,24.60
2019-03-30T01:31:37.806Z,24.00
2019-03-30T01:32:37.830Z,23.60
2019-03-30T01:33:37.802Z,22.60
2019-03-30T01:34:37.787Z,22.20
2019-03-30T01:35:37.760Z,20.80
2019-03-30T01:36:37.760Z,21.60
2019-03-30T01:37:37.759Z,22.20
2019-03-30T01:38:37.742Z,22.40
2019-03-30T01:39:37.759Z,21.80
2019-03-30T01:40:37.706Z,23.80
2019-03-30T01:41:37.722Z,23.40
2019-03-30T01:42:37.681Z,24.10
2019-03-30T01:43:37.670Z,24.30
2019-03-30T01:44:37.727Z,24.00
2019-03-30T01:45:37.666Z,23.10
2019-03-30T01:46:37.639Z,23.50
2019-03-30T01:47:37.643Z,23.20
2019-03-30T01:48:37.627Z,23.60
2019-03-30T01:49:37.617Z,23.00
2019-03-30T01:50:37.627Z,22.70
2019-03-30T01:51:37.587Z,22.30
2019-03-30T01:52:37.574Z,22.40
2019-03-30T01:53:37.581Z,23.00
2019-03-30T01:54:37.582Z,22.30
2019-03-30T01:55:37.583Z,21.80
2019-03-30T01:56:37.549Z,22.10
2019-03-30T01:57:37.526Z,21.50
2019-03-30T01:58:37.657Z,21.10
2019-03-30T01:59:37.506Z,20.40
2019-03-30T02:00:37.551Z,21.40
2019-03-30T02:01:37.476Z,20.90
2019-03-30T02:02:37.517Z,19.90
2019-03-30T02:03:37.508Z,20.60
2019-03-30T02:04:37.448Z,19.90
2019-03-30T02:05:37.499Z,19.40
2019-03-30T02:06:37.510Z,20.80
2019-03-30T02:07:37.452Z,21.10
2019-03-30T02:08:37.418Z,21.30
2019-03-30T02:09:37.387Z,20.30
2019-03-30T02:10:37.402Z,20.40
2019-03-30T02:11:37.384Z,19.90
2019-03-30T02:12:37.432Z,20.40
2019-03-30T02:13:37.348Z,19.30
2019-03-30T02:14:37.343Z,22.00
2019-03-30T02:15:37.342Z,20.40
2019-03-30T02:16:37.352Z,20.80
2019-03-30T02:17:37.328Z,20.30
2019-03-30T02:18:37.297Z,19.70
2019-03-30T02:19:37.321Z,19.90
2019-03-30T02:20:37.277Z,19.60
2019-03-30T02:21:37.312Z,20.40
2019-03-30T02:22:37.289Z,19.90
2019-03-30T02:23:37.268Z,20.30
2019-03-30T02:24:37.299Z,21.20
2019-03-30T02:25:37.247Z,20.30
2019-03-30T02:26:37.227Z,20.20
2019-03-30T02:27:37.261Z,20.30
2019-03-30T02:28:37.216Z,20.80
2019-03-30T02:29:37.182Z,20.40
2019-03-30T02:30:37.164Z,18.60
2019-03-30T02:31:37.146Z,19.70
2019-03-30T02:32:37.156Z,19.40
2019-03-30T02:33:37.126Z,20.40
2019-03-30T02:34:37.138Z,19.60
2019-03-30T02:35:37.139Z,19.50
2019-03-30T02:36:37.140Z,19.80
2019-03-30T02:37:37.092Z,20.30
2019-03-30T02:38:37.094Z,20.20
2019-03-30T02:39:37.058Z,20.40
2019-03-30T02:40:37.063Z,20.00
2019-03-30T02:41:37.044Z,21.40
2019-03-30T02:42:37.034Z,19.60
2019-03-30T02:43:37.072Z,20.30
2019-03-30T02:44:37.037Z,20.00
2019-03-30T02:45:37.017Z,19.80
2019-03-30T02:46:36.988Z,18.90
2019-03-30T02:47:36.968Z,19.60
2019-03-30T02:48:36.955Z,19.40
2019-03-30T02:49:36.969Z,19.50
2019-03-30T02:50:49.185Z,19.80
2019-03-30T02:51:37.955Z,19.20
2019-03-30T02:52:36.911Z,20.40
2019-03-30T02:53:36.910Z,20.00
2019-03-30T02:54:36.915Z,20.90
2019-03-30T02:55:36.884Z,19.90
2019-03-30T02:56:36.879Z,19.70
2019-03-30T02:57:36.857Z,19.60
2019-03-30T02:58:36.858Z,20.60
2019-03-30T02:59:36.863Z,20.00
2019-03-30T03:00:36.869Z,21.50
2019-03-30T03:01:36.817Z,21.20
2019-03-30T03:02:36.827Z,21.00
2019-03-30T03:03:36.887Z,20.50
2019-03-30T03:04:36.788Z,21.20
2019-03-30T03:05:36.806Z,21.30
2019-03-30T03:06:36.766Z,21.40
2019-03-30T03:07:36.756Z,21.40
2019-03-30T03:08:36.747Z,20.60
2019-03-30T03:09:36.727Z,21.30
2019-03-30T03:10:36.721Z,22.50
2019-03-30T03:11:36.725Z,21.90
2019-03-30T03:12:36.701Z,22.10
2019-03-30T03:13:36.690Z,21.80
2019-03-30T03:14:36.671Z,22.10
2019-03-30T03:15:36.661Z,21.80
2019-03-30T03:16:36.692Z,21.90
2019-03-30T03:17:36.710Z,22.40
2019-03-30T03:18:36.665Z,21.80
2019-03-30T03:19:36.657Z,22.10
2019-03-30T03:20:36.641Z,22.10
2019-03-30T03:21:36.602Z,23.10
2019-03-30T03:22:36.630Z,22.00
2019-03-30T03:23:36.577Z,22.50
2019-03-30T03:24:36.568Z,22.10
2019-03-30T03:25:36.574Z,22.30
2019-03-30T03:26:36.582Z,22.20
2019-03-30T03:27:36.579Z,22.40
2019-03-30T03:28:36.543Z,23.00
2019-03-30T03:29:36.516Z,22.60
2019-03-30T03:30:36.502Z,21.90
2019-03-30T03:31:36.517Z,22.30
2019-03-30T03:32:36.531Z,22.20
2019-03-30T03:33:36.592Z,23.30
2019-03-30T03:34:36.459Z,22.20
2019-03-30T03:35:36.447Z,22.80
2019-03-30T03:36:36.440Z,22.40
2019-03-30T03:37:44.542Z,22.30
2019-03-30T03:38:37.441Z,23.00
2019-03-30T03:39:36.398Z,21.60
2019-03-30T03:40:36.427Z,21.70
2019-03-30T03:41:36.408Z,21.00
2019-03-30T03:42:36.440Z,22.20
2019-03-30T03:43:36.387Z,22.20
2019-03-30T03:44:36.438Z,21.20
2019-03-30T03:45:36.396Z,21.90
2019-03-30T03:46:36.361Z,20.70
2019-03-30T03:47:36.347Z,22.00
2019-03-30T03:48:36.339Z,22.30
2019-03-30T03:49:36.294Z,22.00
2019-03-30T03:50:36.283Z,21.70
2019-03-30T03:51:36.266Z,20.90
2019-03-30T03:52:36.299Z,22.10
2019-03-30T03:53:36.239Z,22.20
2019-03-30T03:54:36.286Z,21.70
2019-03-30T03:55:36.228Z,21.00
2019-03-30T03:56:36.220Z,20.60
2019-03-30T03:57:36.276Z,22.00
2019-03-30T03:58:36.229Z,21.20
2019-03-30T03:59:36.175Z,22.20
2019-03-30T04:00:36.167Z,21.30
2019-03-30T04:01:36.159Z,21.80
2019-03-30T04:02:36.139Z,21.60
2019-03-30T04:03:36.133Z,22.40
2019-03-30T04:04:36.126Z,22.80
2019-03-30T04:05:36.143Z,22.70
2019-03-30T04:06:36.101Z,22.60
2019-03-30T04:07:36.108Z,23.20
2019-03-30T04:08:36.087Z,21.70
2019-03-30T04:09:36.112Z,22.30
2019-03-30T04:10:36.150Z,22.90
2019-03-30T04:11:36.059Z,23.20
2019-03-30T04:12:36.035Z,22.50
2019-03-30T04:13:36.043Z,22.70
2019-03-30T04:14:36.027Z,23.70
2019-03-30T04:15:36.006Z,23.50
2019-03-30T04:16:36.053Z,23.90
2019-03-30T04:17:36.020Z,24.00
2019-03-30T04:18:35.977Z,24.00
2019-03-30T04:19:35.978Z,22.90
2019-03-30T04:20:35.971Z,23.30
2019-03-30T04:21:43.669Z,22.70
2019-03-30T04:22:36.948Z,23.80
2019-03-30T04:23:35.914Z,23.10
2019-03-30T04:24:35.911Z,21.90
2019-03-30T04:25:35.903Z,22.70
2019-03-30T04:26:35.891Z,23.00
2019-03-30T04:27:35.883Z,22.70
2019-03-30T04:28:35.870Z,23.20
2019-03-30T04:29:35.855Z,22.50
2019-03-30T04:30:35.852Z,22.50
2019-03-30T04:31:35.833Z,22.80
2019-03-30T04:32:35.812Z,21.50
2019-03-30T04:33:35.818Z,21.50
2019-03-30T04:34:35.795Z,22.80
2019-03-30T04:35:35.788Z,21.70
2019-03-30T04:36:35.778Z,22.00
2019-03-30T04:37:35.756Z,22.20
2019-03-30T04:38:35.791Z,22.20
2019-03-30T04:39:35.743Z,22.00
2019-03-30T04:40:35.748Z,21.70
2019-03-30T04:41:35.724Z,23.00
2019-03-30T04:42:35.712Z,22.90
2019-03-30T04:43:35.695Z,22.40
2019-03-30T04:44:35.706Z,22.10
2019-03-30T04:45:35.682Z,22.30
2019-03-30T04:46:35.694Z,22.80
2019-03-30T04:47:35.668Z,23.00
2019-03-30T04:48:35.649Z,23.00
2019-03-30T04:49:35.645Z,22.10
2019-03-30T04:50:35.617Z,22.00
2019-03-30T04:51:35.607Z,22.50
2019-03-30T04:52:35.612Z,22.00
2019-03-30T04:53:35.580Z,21.50
2019-03-30T04:54:35.574Z,20.80
2019-03-30T04:55:35.580Z,21.50
2019-03-30T04:56:35.564Z,21.30
2019-03-30T04:57:35.540Z,21.20
2019-03-30T04:58:35.522Z,21.20
2019-03-30T04:59:35.520Z,21.20
2019-03-30T05:00:35.520Z,20.60
2019-03-30T05:01:35.505Z,21.20
2019-03-30T05:02:35.488Z,20.60
2019-03-30T05:03:35.501Z,20.40
2019-03-30T05:04:35.476Z,21.60
2019-03-30T05:05:35.498Z,21.30
2019-03-30T05:06:35.450Z,20.80
2019-03-30T05:07:35.450Z,20.80
2019-03-30T05:08:35.427Z,20.90
2019-03-30T05:09:35.410Z,21.70
2019-03-30T05:10:35.426Z,21.30
2019-03-30T05:11:35.407Z,21.80
2019-03-30T05:12:35.408Z,21.20
2019-03-30T05:13:35.361Z,21.20
2019-03-30T05:14:35.383Z,21.30
2019-03-30T05:15:35.351Z,21.40
2019-03-30T05:16:35.358Z,21.00
2019-03-30T05:17:46.725Z,20.90
2019-03-30T05:18:36.322Z,20.80
2019-03-30T05:19:35.297Z,19.20
2019-03-30T05:20:35.293Z,20.90
2019-03-30T05:21:35.299Z,21.20
2019-03-30T05:22:35.264Z,20.80
2019-03-30T05:23:35.267Z,20.20
2019-03-30T05:24:35.248Z,20.40
2019-03-30T05:25:35.246Z,20.00
2019-03-30T05:26:35.245Z,20.20
2019-03-30T05:27:35.216Z,22.10
2019-03-30T05:28:35.194Z,20.80
2019-03-30T05:29:35.194Z,21.50
2019-03-30T05:30:35.183Z,21.70
2019-03-30T05:31:35.184Z,20.70
2019-03-30T05:32:35.167Z,22.20
2019-03-30T05:33:35.141Z,28.70
2019-03-30T05:34:35.144Z,33.10
2019-03-30T05:35:35.145Z,32.60
2019-03-30T05:36:35.116Z,31.20
2019-03-30T05:37:35.115Z,29.90
2019-03-30T05:38:35.098Z,28.40
2019-03-30T05:39:35.082Z,27.10
2019-03-30T05:40:35.063Z,26.60
2019-03-30T05:41:35.055Z,26.00
2019-03-30T05:42:35.066Z,26.40
2019-03-30T05:43:35.053Z,25.80
2019-03-30T05:44:35.023Z,25.40
2019-03-30T05:45:35.029Z,26.10
2019-03-30T05:46:35.029Z,27.20
2019-03-30T05:47:34.990Z,25.60
2019-03-30T05:48:35.005Z,28.90
2019-03-30T05:49:34.970Z,27.70
2019-03-30T05:50:34.956Z,28.50
2019-03-30T05:51:34.943Z,29.70
2019-03-30T05:52:35.774Z,31.70
2019-03-30T05:53:34.943Z,29.60
2019-03-30T05:54:34.938Z,28.20
2019-03-30T05:55:34.933Z,26.00
2019-03-30T05:56:34.936Z,25.20
2019-03-30T05:57:34.889Z,24.40
2019-03-30T05:58:34.869Z,23.20
2019-03-30T05:59:34.869Z,23.50
2019-03-30T06:00:34.871Z,24.20
2019-03-30T06:01:34.845Z,23.90
2019-03-30T06:02:34.841Z,23.40
2019-03-30T06:03:34.838Z,24.90
2019-03-30T06:04:34.843Z,24.50
2019-03-30T06:05:34.835Z,24.00
2019-03-30T06:06:34.814Z,25.10
2019-03-30T06:07:34.794Z,26.80
2019-03-30T06:08:34.752Z,26.10
2019-03-30T06:09:34.817Z,25.20
2019-03-30T06:10:34.807Z,24.20
2019-03-30T06:11:34.738Z,24.10
2019-03-30T06:12:34.717Z,23.70
2019-03-30T06:13:34.723Z,23.80
2019-03-30T06:14:34.695Z,23.40
2019-03-30T06:15:34.700Z,22.00
2019-03-30T06:16:34.671Z,22.60
2019-03-30T06:17:34.704Z,22.60
2019-03-30T06:18:34.644Z,22.10
2019-03-30T06:19:34.646Z,22.80
2019-03-30T06:20:34.638Z,23.50
2019-03-30T06:21:34.609Z,23.60
2019-03-30T06:22:40.607Z,22.90
2019-03-30T06:23:35.587Z,23.30
2019-03-30T06:24:34.593Z,22.60
2019-03-30T06:25:34.636Z,22.10
2019-03-30T06:26:34.632Z,22.40
2019-03-30T06:27:34.541Z,23.30
2019-03-30T06:28:34.577Z,23.00
2019-03-30T06:29:34.558Z,22.70
2019-03-30T06:30:34.588Z,23.10
2019-03-30T06:31:34.544Z,22.40
2019-03-30T06:32:34.546Z,24.20
2019-03-30T06:33:34.556Z,26.30
2019-03-30T06:34:34.524Z,24.90
2019-03-30T06:35:34.487Z,27.40
2019-03-30T06:36:34.524Z,25.20
2019-03-30T06:37:34.448Z,23.40
2019-03-30T06:38:34.425Z,22.90
2019-03-30T06:39:37.043Z,22.80
2019-03-30T06:40:34.426Z,23.00
2019-03-30T06:41:34.427Z,23.40
2019-03-30T06:42:34.396Z,22.90
2019-03-30T06:43:34.546Z,22.70
2019-03-30T06:44:34.369Z,22.50
2019-03-30T06:45:34.363Z,22.50
2019-03-30T06:46:34.380Z,22.00
2019-03-30T06:47:34.345Z,22.80
2019-03-30T06:48:36.096Z,22.50
2019-03-30T06:49:34.305Z,22.70
2019-03-30T06:50:34.316Z,22.10
2019-03-30T06:51:34.283Z,22.10
2019-03-30T06:52:34.342Z,23.20
2019-03-30T06:53:34.273Z,22.70
2019-03-30T06:54:34.265Z,24.20
2019-03-30T06:55:34.272Z,23.30
2019-03-30T06:56:34.244Z,23.60
2019-03-30T06:57:34.231Z,23.10
2019-03-30T06:58:34.229Z,24.10
2019-03-30T06:59:34.192Z,24.30
2019-03-30T07:00:34.233Z,25.80
2019-03-30T07:01:34.199Z,26.70
2019-03-30T07:02:34.173Z,25.90
2019-03-30T07:03:34.174Z,24.90
2019-03-30T07:04:34.156Z,24.70
2019-03-30T07:05:34.126Z,24.80
2019-03-30T07:06:34.121Z,24.90
2019-03-30T07:07:34.128Z,27.20
2019-03-30T07:08:34.126Z,24.80
2019-03-30T07:09:34.085Z,24.80
2019-03-30T07:10:34.095Z,24.80
2019-03-30T07:11:34.067Z,25.40
2019-03-30T07:12:34.064Z,24.70
2019-03-30T07:13:34.090Z,24.80
2019-03-30T07:14:34.138Z,25.10
2019-03-30T07:15:34.025Z,25.00
2019-03-30T07:16:34.035Z,25.10
2019-03-30T07:17:34.018Z,25.00
2019-03-30T07:18:34.020Z,26.10
2019-03-30T07:19:33.998Z,26.60
2019-03-30T07:20:33.971Z,26.60
2019-03-30T07:21:33.963Z,27.60
2019-03-30T07:22:33.964Z,28.70
2019-03-30T07:23:33.938Z,27.40
2019-03-30T07:24:34.494Z,27.70
2019-03-30T07:25:33.927Z,27.20
2019-03-30T07:26:33.916Z,29.10
2019-03-30T07:27:33.887Z,28.20
2019-03-30T07:28:33.868Z,28.20
2019-03-30T07:29:33.865Z,28.60
2019-03-30T07:30:33.866Z,28.30
2019-03-30T07:31:33.986Z,28.00
2019-03-30T07:32:33.838Z,27.80
2019-03-30T07:33:33.822Z,27.90
2019-03-30T07:34:33.816Z,27.80
2019-03-30T07:35:33.800Z,27.20
2019-03-30T07:36:33.789Z,27.00
2019-03-30T07:37:33.804Z,27.30
2019-03-30T07:38:33.761Z,27.30
2019-03-30T07:39:33.809Z,27.50
2019-03-30T07:40:34.118Z,27.30
2019-03-30T07:41:33.771Z,27.40
2019-03-30T07:42:33.747Z,28.00
2019-03-30T07:43:33.718Z,27.20
2019-03-30T07:44:33.714Z,27.40
2019-03-30T07:45:33.706Z,28.00
2019-03-30T07:46:33.673Z,27.70
2019-03-30T07:47:33.684Z,27.20
2019-03-30T07:48:33.690Z,27.20
2019-03-30T07:49:33.640Z,27.00
2019-03-30T07:50:33.628Z,26.70
2019-03-30T07:51:33.782Z,27.40
2019-03-30T07:52:33.604Z,27.70
2019-03-30T07:53:43.782Z,27.90
2019-03-30T07:54:34.763Z,28.10
2019-03-30T07:55:33.576Z,26.90
2019-03-30T07:56:33.640Z,27.90
2019-03-30T07:57:33.546Z,27.30
2019-03-30T07:58:33.569Z,27.40
2019-03-30T07:59:33.559Z,27.20
2019-03-30T08:00:33.515Z,27.40
2019-03-30T08:01:33.524Z,29.10
2019-03-30T08:02:33.492Z,27.40
2019-03-30T08:03:33.549Z,28.10
2019-03-30T08:04:33.517Z,27.20
2019-03-30T08:05:33.467Z,27.10
2019-03-30T08:06:33.454Z,27.20
2019-03-30T08:07:33.447Z,26.70
2019-03-30T08:08:33.472Z,27.00
2019-03-30T08:09:33.480Z,26.50
2019-03-30T08:10:33.427Z,27.40
2019-03-30T08:11:33.404Z,27.30
2019-03-30T08:12:33.392Z,27.60
2019-03-30T08:13:33.385Z,26.90
2019-03-30T08:14:33.361Z,26.90
2019-03-30T08:15:33.365Z,27.20
2019-03-30T08:16:33.342Z,26.40
2019-03-30T08:17:33.324Z,26.80
2019-03-30T08:18:33.342Z,26.30
2019-03-30T08:19:33.325Z,26.80
2019-03-30T08:20:33.335Z,26.50
2019-03-30T08:21:33.285Z,26.40
2019-03-30T08:22:33.312Z,26.70
2019-03-30T08:23:40.251Z,28.00
2019-03-30T08:24:34.293Z,27.70
2019-03-30T08:25:33.233Z,27.30
2019-03-30T08:26:35.658Z,27.20
2019-03-30T08:27:33.222Z,26.90
2019-03-30T08:28:33.200Z,27.40
2019-03-30T08:29:33.193Z,27.90
2019-03-30T08:30:33.189Z,27.10
2019-03-30T08:31:33.187Z,27.80
2019-03-30T08:32:33.159Z,27.00
2019-03-30T08:33:33.152Z,28.70
2019-03-30T08:34:33.132Z,27.70
2019-03-30T08:35:33.138Z,27.70
2019-03-30T08:36:33.119Z,27.50
2019-03-30T08:37:33.129Z,27.30
2019-03-30T08:38:33.130Z,27.40
2019-03-30T08:39:33.092Z,27.40
2019-03-30T08:40:33.072Z,27.90
2019-03-30T08:41:33.138Z,27.20
2019-03-30T08:42:33.084Z,27.10
2019-03-30T08:43:33.033Z,26.50
2019-03-30T08:44:33.065Z,27.40
2019-03-30T08:45:33.031Z,26.40
2019-03-30T08:46:33.004Z,26.60
2019-03-30T08:47:33.072Z,27.60
2019-03-30T08:48:33.036Z,27.70
2019-03-30T08:49:32.974Z,27.00
2019-03-30T08:50:32.980Z,26.70
2019-03-30T08:51:32.979Z,27.50
2019-03-30T08:52:32.945Z,26.70
2019-03-30T08:53:32.996Z,25.90
2019-03-30T08:54:32.945Z,25.20
2019-03-30T08:55:32.946Z,25.60
2019-03-30T08:56:32.931Z,25.70
2019-03-30T08:57:32.892Z,26.40
2019-03-30T08:58:32.905Z,25.30
2019-03-30T08:59:32.873Z,25.80
2019-03-30T09:00:33.579Z,26.60
2019-03-30T09:01:32.892Z,25.50
2019-03-30T09:02:32.865Z,26.30
2019-03-30T09:03:34.078Z,26.00
2019-03-30T09:04:32.825Z,26.60
2019-03-30T09:05:32.826Z,26.60
2019-03-30T09:06:32.785Z,25.30
2019-03-30T09:07:32.793Z,26.10
2019-03-30T09:08:32.770Z,25.60
2019-03-30T09:09:32.788Z,26.00
2019-03-30T09:10:32.758Z,26.60
2019-03-30T09:11:32.750Z,26.10
2019-03-30T09:12:32.774Z,26.00
2019-03-30T09:13:32.739Z,26.40
2019-03-30T09:14:32.728Z,26.20
2019-03-30T09:15:32.697Z,26.00
2019-03-30T09:16:32.692Z,26.00
2019-03-30T09:17:32.720Z,26.60
2019-03-30T09:18:32.705Z,26.40
2019-03-30T09:19:32.654Z,26.50
2019-03-30T09:20:32.641Z,26.80
2019-03-30T09:21:32.631Z,26.10
2019-03-30T09:22:32.613Z,26.40
2019-03-30T09:23:32.647Z,26.00
2019-03-30T09:24:32.592Z,26.10
2019-03-30T09:25:32.579Z,25.30
2019-03-30T09:26:32.573Z,24.70
2019-03-30T09:27:32.595Z,26.30
2019-03-30T09:28:32.547Z,26.40
2019-03-30T09:29:32.547Z,25.70
2019-03-30T09:30:32.610Z,25.90
2019-03-30T09:31:32.518Z,25.70
2019-03-30T09:32:32.516Z,25.30
2019-03-30T09:33:32.494Z,26.00
2019-03-30T09:34:32.491Z,25.00
2019-03-30T09:35:32.483Z,25.00
2019-03-30T09:36:32.586Z,25.90
2019-03-30T09:37:32.457Z,25.90
2019-03-30T09:38:32.440Z,25.80
2019-03-30T09:39:32.454Z,24.80
2019-03-30T09:40:32.412Z,25.30
2019-03-30T09:41:32.417Z,26.20
2019-03-30T09:42:32.385Z,25.80
2019-03-30T09:43:32.387Z,26.00
2019-03-30T09:44:32.394Z,26.30
2019-03-30T09:45:32.394Z,25.80
2019-03-30T09:46:32.351Z,25.70
2019-03-30T09:47:32.344Z,24.80
2019-03-30T09:48:32.358Z,26.10
2019-03-30T09:49:32.314Z,26.60
2019-03-30T09:50:32.316Z,25.70
2019-03-30T09:51:32.282Z,25.70
2019-03-30T09:52:32.285Z,25.30
2019-03-30T09:53:32.296Z,24.60
2019-03-30T09:54:32.258Z,24.60
2019-03-30T09:55:32.255Z,23.50
2019-03-30T09:56:32.268Z,23.90
2019-03-30T09:57:32.235Z,24.30
2019-03-30T09:58:32.224Z,22.80
2019-03-30T09:59:32.237Z,23.00
2019-03-30T10:00:32.188Z,23.20
2019-03-30T10:01:32.188Z,22.80
2019-03-30T10:02:32.180Z,24.30
2019-03-30T10:03:32.155Z,23.40
2019-03-30T10:04:32.159Z,22.90
2019-03-30T10:05:32.162Z,23.10
2019-03-30T10:06:34.555Z,22.30
2019-03-30T10:07:32.120Z,22.60
2019-03-30T10:08:32.139Z,22.40
2019-03-30T10:09:32.091Z,22.70
2019-03-30T10:10:32.087Z,22.80
2019-03-30T10:11:32.071Z,22.70
2019-03-30T10:12:32.060Z,22.80
2019-03-30T10:13:32.050Z,21.90
2019-03-30T10:14:32.039Z,21.90
2019-03-30T10:15:32.015Z,22.80
2019-03-30T10:16:32.011Z,21.80
2019-03-30T10:17:32.000Z,22.50
2019-03-30T10:18:31.994Z,21.50
2019-03-30T10:19:31.996Z,22.50
2019-03-30T10:20:31.997Z,23.00
2019-03-30T10:21:32.001Z,23.00
2019-03-30T10:22:31.965Z,22.70
2019-03-30T10:23:31.941Z,23.20
2019-03-30T10:24:38.058Z,22.10
2019-03-30T10:25:32.973Z,22.40
2019-03-30T10:26:31.969Z,22.20
2019-03-30T10:27:31.894Z,22.50
2019-03-30T10:28:31.891Z,21.90
2019-03-30T10:29:31.992Z,21.80
2019-03-30T10:30:31.861Z,21.40
2019-03-30T10:31:31.839Z,22.40
2019-03-30T10:32:31.831Z,22.30
2019-03-30T10:33:31.858Z,21.50
2019-03-30T10:34:31.821Z,20.90
2019-03-30T10:35:31.797Z,19.80
2019-03-30T10:36:31.793Z,19.50
2019-03-30T10:37:31.763Z,19.50
2019-03-30T10:38:31.791Z,20.10
2019-03-30T10:39:31.766Z,19.90
2019-03-30T10:40:31.748Z,20.20
2019-03-30T10:41:31.712Z,19.00
2019-03-30T10:42:31.713Z,18.90
2019-03-30T10:43:31.738Z,18.80
2019-03-30T10:44:31.692Z,19.10
2019-03-30T10:45:31.720Z,19.10
2019-03-30T10:46:31.668Z,19.10
2019-03-30T10:47:31.646Z,19.20
2019-03-30T10:48:31.656Z,19.20
2019-03-30T10:49:31.671Z,18.40
2019-03-30T10:50:31.614Z,17.80
2019-03-30T10:51:31.623Z,17.20
2019-03-30T10:52:31.600Z,17.00
2019-03-30T10:53:31.587Z,16.00
2019-03-30T10:54:31.603Z,15.60
2019-03-30T10:55:31.580Z,15.30
2019-03-30T10:56:31.602Z,14.40
2019-03-30T10:57:31.557Z,14.20
2019-03-30T10:58:31.536Z,15.60
2019-03-30T10:59:31.525Z,15.20
2019-03-30T11:00:31.511Z,15.20
2019-03-30T11:01:31.526Z,16.50
2019-03-30T11:02:31.491Z,16.40
2019-03-30T11:03:31.556Z,17.20
2019-03-30T11:04:31.592Z,16.90
2019-03-30T11:05:31.457Z,17.90
2019-03-30T11:06:31.456Z,17.10
2019-03-30T11:07:31.450Z,17.90
2019-03-30T11:08:31.432Z,17.30
2019-03-30T11:09:31.439Z,17.80
2019-03-30T11:10:31.440Z,16.90
2019-03-30T11:11:31.381Z,17.50
2019-03-30T11:12:31.365Z,17.40
2019-03-30T11:13:31.365Z,17.60
2019-03-30T11:14:31.348Z,17.20
2019-03-30T11:15:34.112Z,16.90
2019-03-30T11:16:31.323Z,17.50
2019-03-30T11:17:31.334Z,17.60
2019-03-30T11:18:31.320Z,16.70
2019-03-30T11:19:31.336Z,17.90
2019-03-30T11:20:31.286Z,18.10
2019-03-30T11:21:31.277Z,18.30
2019-03-30T11:22:31.267Z,17.80
2019-03-30T11:23:31.264Z,17.40
2019-03-30T11:24:31.233Z,17.50
2019-03-30T11:25:31.233Z,16.40
2019-03-30T11:26:31.259Z,18.50
2019-03-30T11:27:31.223Z,17.90
2019-03-30T11:28:31.258Z,18.20
2019-03-30T11:29:31.199Z,18.00
2019-03-30T11:30:31.177Z,18.20
2019-03-30T11:31:31.187Z,17.80
2019-03-30T11:32:31.164Z,19.00
2019-03-30T11:33:31.157Z,18.50
2019-03-30T11:34:31.150Z,18.40
2019-03-30T11:35:31.111Z,18.10
2019-03-30T11:36:31.265Z,17.80
2019-03-30T11:37:31.112Z,18.20
2019-03-30T11:38:31.096Z,17.90
2019-03-30T11:39:31.094Z,18.40
2019-03-30T11:40:31.079Z,17.70
2019-03-30T11:41:31.041Z,18.40
2019-03-30T11:42:31.089Z,18.00
2019-03-30T11:43:31.140Z,18.30
2019-03-30T11:44:31.024Z,18.60
2019-03-30T11:45:31.030Z,18.30
2019-03-30T11:46:31.010Z,18.80
2019-03-30T11:47:30.975Z,18.30
2019-03-30T11:48:31.033Z,19.10
2019-03-30T11:49:31.213Z,18.00
2019-03-30T11:50:30.944Z,18.50
2019-03-30T11:51:30.990Z,17.50
2019-03-30T11:52:30.929Z,17.80
2019-03-30T11:53:30.916Z,17.50
2019-03-30T11:54:30.946Z,17.10
2019-03-30T11:55:30.932Z,16.90
2019-03-30T11:56:30.877Z,17.20
2019-03-30T11:57:30.871Z,16.70
2019-03-30T11:58:31.000Z,18.90
2019-03-30T11:59:30.848Z,16.90
2019-03-30T12:00:30.876Z,18.30
2019-03-30T12:01:30.822Z,18.60
2019-03-30T12:02:30.835Z,17.90
2019-03-30T12:03:30.800Z,17.20
2019-03-30T12:04:30.801Z,17.40
2019-03-30T12:05:30.777Z,17.10
2019-03-30T12:06:30.786Z,16.00
2019-03-30T12:07:30.781Z,16.50
2019-03-30T12:08:30.746Z,16.30
2019-03-30T12:09:30.725Z,16.70
2019-03-30T12:10:30.722Z,17.20
2019-03-30T12:11:30.743Z,18.70
2019-03-30T12:12:30.693Z,17.50
2019-03-30T12:13:30.686Z,17.90
2019-03-30T12:14:30.700Z,17.80
2019-03-30T12:15:30.666Z,16.70
2019-03-30T12:16:30.670Z,16.10
2019-03-30T12:17:31.531Z,17.30
2019-03-30T12:18:30.641Z,17.10
2019-03-30T12:19:30.627Z,18.40
2019-03-30T12:20:30.641Z,18.00
2019-03-30T12:21:30.602Z,17.80
2019-03-30T12:22:30.582Z,17.70
2019-03-30T12:23:30.598Z,18.70
2019-03-30T12:24:30.568Z,17.40
2019-03-30T12:25:36.024Z,18.30
2019-03-30T12:26:31.545Z,18.70
2019-03-30T12:27:30.533Z,18.90
2019-03-30T12:28:30.537Z,19.00
2019-03-30T12:29:30.716Z,19.20
2019-03-30T12:30:30.498Z,19.50
2019-03-30T12:31:30.492Z,19.90
2019-03-30T12:32:30.483Z,19.70
2019-03-30T12:33:30.467Z,19.80
2019-03-30T12:34:30.482Z,20.40
2019-03-30T12:35:30.446Z,20.00
2019-03-30T12:36:30.457Z,19.20
2019-03-30T12:37:30.453Z,19.30
2019-03-30T12:38:30.408Z,19.10
2019-03-30T12:39:30.400Z,19.00
2019-03-30T12:40:30.410Z,19.50
2019-03-30T12:41:30.400Z,19.20
2019-03-30T12:42:30.374Z,18.50
2019-03-30T12:43:30.359Z,18.50
2019-03-30T12:44:30.345Z,18.60
2019-03-30T12:45:30.371Z,18.40
2019-03-30T12:46:30.360Z,18.20
2019-03-30T12:47:31.036Z,19.70
2019-03-30T12:48:30.294Z,19.30
2019-03-30T12:49:30.296Z,18.80
2019-03-30T12:50:30.276Z,19.50
2019-03-30T12:51:30.300Z,19.20
2019-03-30T12:52:30.273Z,18.80